Startpagina
METAR-TAF:

METAR-TAF

Vliegvelden :

Torrington Municipal Airport

Torrington, Wyoming, Verenigde Staten

breedte: 42-03-53N, lengte: 104-09-10W, hoogte: 1282 m

Actueel weer

Dit bericht is 50 minuten geleden gemaakt, om 10:53 UTC
Weinig wind
Temperatuur 14°C
Vochtigheid 100%
Druk 1017 hPa
Zicht: 16.1 km
Onbewolkt

METAR: KTOR 191053Z AUTO 00000KT 10SM CLR 14/14 A3004 RMK AO2 SLP122 T01440139

Tijdstip: 05:43 (11:43 UTC)


TAF: ontbreekt

Waarnemingen en weersverwachtingen van meer dan 4000 vliegvelden (METAR en TAF).

De beschikbare stations zijn de gele en rode punten op de kaart.

Ga met uw muis naar het station om de naam te zien.

Klik dan om waarnemingen en weersverwachtingen te zien.

kaart wijzigen: klik op de groene knoppen met een zwart kruis om in te zoomen, op de groene knop met een streepje om uit te zoomen of op de groene pijlen voor aangrenzende kaarten.


METAR-TAF: